sensor_id;sensor_type;location;lat;lon;timestamp;temperature;humidity
25512;DHT22;13414;44.534;18.700;2024-03-29T00:01:31;16.00;1.00
25512;DHT22;13414;44.534;18.700;2024-03-29T00:03:58;16.00;1.00
25512;DHT22;13414;44.534;18.700;2024-03-29T00:06:24;16.00;1.00
25512;DHT22;13414;44.534;18.700;2024-03-29T00:08:50;16.10;1.00
25512;DHT22;13414;44.534;18.700;2024-03-29T00:11:18;16.10;1.00
25512;DHT22;13414;44.534;18.700;2024-03-29T00:13:44;16.10;1.00
25512;DHT22;13414;44.534;18.700;2024-03-29T00:16:11;16.10;1.00
25512;DHT22;13414;44.534;18.700;2024-03-29T00:18:37;16.10;1.00
25512;DHT22;13414;44.534;18.700;2024-03-29T00:21:04;16.00;1.00
25512;DHT22;13414;44.534;18.700;2024-03-29T00:23:30;15.90;1.00
25512;DHT22;13414;44.534;18.700;2024-03-29T00:25:56;15.90;1.00
25512;DHT22;13414;44.534;18.700;2024-03-29T00:28:24;16.00;1.00
25512;DHT22;13414;44.534;18.700;2024-03-29T00:30:51;16.00;1.00
25512;DHT22;13414;44.534;18.700;2024-03-29T00:33:17;16.10;1.00
25512;DHT22;13414;44.534;18.700;2024-03-29T00:35:43;16.10;1.00
25512;DHT22;13414;44.534;18.700;2024-03-29T00:38:10;16.10;1.00
25512;DHT22;13414;44.534;18.700;2024-03-29T00:40:36;16.10;1.00
25512;DHT22;13414;44.534;18.700;2024-03-29T00:43:03;16.10;1.00
25512;DHT22;13414;44.534;18.700;2024-03-29T00:45:30;16.20;1.00
25512;DHT22;13414;44.534;18.700;2024-03-29T00:47:57;16.20;1.00
25512;DHT22;13414;44.534;18.700;2024-03-29T00:50:23;16.20;1.00
25512;DHT22;13414;44.534;18.700;2024-03-29T00:52:50;16.10;1.00
25512;DHT22;13414;44.534;18.700;2024-03-29T00:55:17;16.00;1.00
25512;DHT22;13414;44.534;18.700;2024-03-29T00:57:43;16.20;1.00
25512;DHT22;13414;44.534;18.700;2024-03-29T01:00:10;16.20;1.00
25512;DHT22;13414;44.534;18.700;2024-03-29T01:02:38;16.20;1.00
25512;DHT22;13414;44.534;18.700;2024-03-29T01:05:06;16.20;1.00
25512;DHT22;13414;44.534;18.700;2024-03-29T01:07:32;16.20;1.00
25512;DHT22;13414;44.534;18.700;2024-03-29T01:09:59;16.20;1.00
25512;DHT22;13414;44.534;18.700;2024-03-29T01:12:25;16.20;1.00
25512;DHT22;13414;44.534;18.700;2024-03-29T01:14:52;16.20;1.00
25512;DHT22;13414;44.534;18.700;2024-03-29T01:17:18;16.20;1.00
25512;DHT22;13414;44.534;18.700;2024-03-29T01:19:46;16.20;1.00
25512;DHT22;13414;44.534;18.700;2024-03-29T01:22:13;16.20;1.00
25512;DHT22;13414;44.534;18.700;2024-03-29T01:24:39;16.10;1.00
25512;DHT22;13414;44.534;18.700;2024-03-29T01:27:05;16.20;1.00
25512;DHT22;13414;44.534;18.700;2024-03-29T01:29:32;16.20;1.00
25512;DHT22;13414;44.534;18.700;2024-03-29T01:31:58;16.20;1.00
25512;DHT22;13414;44.534;18.700;2024-03-29T01:34:24;16.30;1.00
25512;DHT22;13414;44.534;18.700;2024-03-29T01:36:52;16.30;1.00
25512;DHT22;13414;44.534;18.700;2024-03-29T01:39:18;16.30;1.00
25512;DHT22;13414;44.534;18.700;2024-03-29T01:41:45;16.40;1.00
25512;DHT22;13414;44.534;18.700;2024-03-29T01:44:11;16.30;1.00
25512;DHT22;13414;44.534;18.700;2024-03-29T01:46:40;16.30;1.00
25512;DHT22;13414;44.534;18.700;2024-03-29T01:49:07;16.20;1.00
25512;DHT22;13414;44.534;18.700;2024-03-29T01:51:37;16.30;1.00
25512;DHT22;13414;44.534;18.700;2024-03-29T01:54:08;16.20;1.00
25512;DHT22;13414;44.534;18.700;2024-03-29T01:56:36;16.20;1.00
25512;DHT22;13414;44.534;18.700;2024-03-29T01:59:04;16.10;1.00
25512;DHT22;13414;44.534;18.700;2024-03-29T02:01:32;16.20;1.00
25512;DHT22;13414;44.534;18.700;2024-03-29T02:03:59;16.20;1.00
25512;DHT22;13414;44.534;18.700;2024-03-29T02:06:27;16.30;1.00
25512;DHT22;13414;44.534;18.700;2024-03-29T02:08:55;16.30;1.00
25512;DHT22;13414;44.534;18.700;2024-03-29T02:11:24;16.30;1.00
25512;DHT22;13414;44.534;18.700;2024-03-29T02:13:53;16.30;1.00
25512;DHT22;13414;44.534;18.700;2024-03-29T02:16:20;16.20;1.00
25512;DHT22;13414;44.534;18.700;2024-03-29T02:18:47;16.20;1.00
25512;DHT22;13414;44.534;18.700;2024-03-29T02:21:16;16.20;1.00
25512;DHT22;13414;44.534;18.700;2024-03-29T02:23:44;16.20;1.00
25512;DHT22;13414;44.534;18.700;2024-03-29T02:26:14;16.10;1.00
25512;DHT22;13414;44.534;18.700;2024-03-29T02:28:41;16.10;1.00
25512;DHT22;13414;44.534;18.700;2024-03-29T02:31:09;16.10;1.00
25512;DHT22;13414;44.534;18.700;2024-03-29T02:33:36;16.10;1.00
25512;DHT22;13414;44.534;18.700;2024-03-29T02:36:05;16.10;1.00
25512;DHT22;13414;44.534;18.700;2024-03-29T02:38:32;16.20;1.00
25512;DHT22;13414;44.534;18.700;2024-03-29T02:40:59;16.10;1.00
25512;DHT22;13414;44.534;18.700;2024-03-29T02:43:28;16.10;1.00
25512;DHT22;13414;44.534;18.700;2024-03-29T02:45:55;16.00;1.00
25512;DHT22;13414;44.534;18.700;2024-03-29T02:48:23;16.00;1.00
25512;DHT22;13414;44.534;18.700;2024-03-29T02:50:50;15.90;1.00
25512;DHT22;13414;44.534;18.700;2024-03-29T02:53:16;15.80;1.00
25512;DHT22;13414;44.534;18.700;2024-03-29T02:55:44;15.70;1.00
25512;DHT22;13414;44.534;18.700;2024-03-29T02:58:10;15.70;1.00
25512;DHT22;13414;44.534;18.700;2024-03-29T03:00:39;15.70;1.00
25512;DHT22;13414;44.534;18.700;2024-03-29T03:03:05;15.60;1.00
25512;DHT22;13414;44.534;18.700;2024-03-29T03:05:33;15.50;1.00
25512;DHT22;13414;44.534;18.700;2024-03-29T03:07:59;15.50;1.00
25512;DHT22;13414;44.534;18.700;2024-03-29T03:10:47;15.40;1.00
25512;DHT22;13414;44.534;18.700;2024-03-29T03:13:26;15.40;1.00
25512;DHT22;13414;44.534;18.700;2024-03-29T03:15:55;15.40;1.00
25512;DHT22;13414;44.534;18.700;2024-03-29T03:18:23;15.30;1.00
25512;DHT22;13414;44.534;18.700;2024-03-29T03:20:51;15.30;1.00
25512;DHT22;13414;44.534;18.700;2024-03-29T03:23:18;15.40;1.00
25512;DHT22;13414;44.534;18.700;2024-03-29T03:25:46;15.30;1.00
25512;DHT22;13414;44.534;18.700;2024-03-29T03:28:12;15.20;1.00
25512;DHT22;13414;44.534;18.700;2024-03-29T03:30:40;15.00;1.00
25512;DHT22;13414;44.534;18.700;2024-03-29T03:33:08;14.70;1.00
25512;DHT22;13414;44.534;18.700;2024-03-29T03:35:35;14.50;1.00
25512;DHT22;13414;44.534;18.700;2024-03-29T03:38:02;14.20;1.00
25512;DHT22;13414;44.534;18.700;2024-03-29T03:40:29;14.00;1.00
25512;DHT22;13414;44.534;18.700;2024-03-29T03:42:55;13.90;1.00
25512;DHT22;13414;44.534;18.700;2024-03-29T03:45:23;13.70;33.30
25512;DHT22;13414;44.534;18.700;2024-03-29T03:47:50;13.60;99.90
25512;DHT22;13414;44.534;18.700;2024-03-29T03:50:19;13.40;99.90
25512;DHT22;13414;44.534;18.700;2024-03-29T03:52:46;13.30;99.90
25512;DHT22;13414;44.534;18.700;2024-03-29T03:55:13;13.30;99.90
25512;DHT22;13414;44.534;18.700;2024-03-29T03:57:40;13.20;99.90
25512;DHT22;13414;44.534;18.700;2024-03-29T04:00:08;13.10;99.90
25512;DHT22;13414;44.534;18.700;2024-03-29T04:02:40;13.10;99.90
25512;DHT22;13414;44.534;18.700;2024-03-29T04:05:08;12.90;1.00
25512;DHT22;13414;44.534;18.700;2024-03-29T04:07:36;12.80;1.00
25512;DHT22;13414;44.534;18.700;2024-03-29T04:10:04;12.70;1.00
25512;DHT22;13414;44.534;18.700;2024-03-29T04:12:32;12.70;1.00
25512;DHT22;13414;44.534;18.700;2024-03-29T04:14:58;12.60;1.00
25512;DHT22;13414;44.534;18.700;2024-03-29T04:17:25;12.60;1.00
25512;DHT22;13414;44.534;18.700;2024-03-29T04:19:52;12.60;1.00
25512;DHT22;13414;44.534;18.700;2024-03-29T04:22:19;12.50;1.00
25512;DHT22;13414;44.534;18.700;2024-03-29T04:24:47;12.40;1.00
25512;DHT22;13414;44.534;18.700;2024-03-29T04:27:14;12.40;1.00
25512;DHT22;13414;44.534;18.700;2024-03-29T04:29:40;12.30;1.00
25512;DHT22;13414;44.534;18.700;2024-03-29T04:32:08;12.30;1.00
25512;DHT22;13414;44.534;18.700;2024-03-29T04:34:34;12.10;1.00
25512;DHT22;13414;44.534;18.700;2024-03-29T04:37:02;12.00;1.00
25512;DHT22;13414;44.534;18.700;2024-03-29T04:39:29;12.00;92.00
25512;DHT22;13414;44.534;18.700;2024-03-29T04:41:58;12.00;96.90
25512;DHT22;13414;44.534;18.700;2024-03-29T04:44:28;12.00;26.00
25512;DHT22;13414;44.534;18.700;2024-03-29T04:46:55;12.00;81.80
25512;DHT22;13414;44.534;18.700;2024-03-29T04:49:23;12.00;8.40
25512;DHT22;13414;44.534;18.700;2024-03-29T04:51:56;12.00;1.00
25512;DHT22;13414;44.534;18.700;2024-03-29T04:54:24;12.00;41.70
25512;DHT22;13414;44.534;18.700;2024-03-29T04:56:52;12.00;1.00
25512;DHT22;13414;44.534;18.700;2024-03-29T04:59:21;12.00;49.60
25512;DHT22;13414;44.534;18.700;2024-03-29T05:01:49;12.10;29.60
25512;DHT22;13414;44.534;18.700;2024-03-29T05:04:19;12.00;16.00
25512;DHT22;13414;44.534;18.700;2024-03-29T05:06:51;12.10;9.20
25512;DHT22;13414;44.534;18.700;2024-03-29T05:09:19;12.00;1.00
25512;DHT22;13414;44.534;18.700;2024-03-29T05:11:46;11.90;80.60
25512;DHT22;13414;44.534;18.700;2024-03-29T05:14:14;12.00;30.40
25512;DHT22;13414;44.534;18.700;2024-03-29T05:16:44;12.00;84.20
25512;DHT22;13414;44.534;18.700;2024-03-29T05:19:12;12.20;1.00
25512;DHT22;13414;44.534;18.700;2024-03-29T05:21:40;12.30;1.00
25512;DHT22;13414;44.534;18.700;2024-03-29T05:24:07;12.50;1.00
25512;DHT22;13414;44.534;18.700;2024-03-29T05:26:35;12.60;1.00
25512;DHT22;13414;44.534;18.700;2024-03-29T05:29:02;12.70;1.00
25512;DHT22;13414;44.534;18.700;2024-03-29T05:31:31;12.70;1.00
25512;DHT22;13414;44.534;18.700;2024-03-29T05:34:00;12.80;1.00
25512;DHT22;13414;44.534;18.700;2024-03-29T05:36:27;12.80;1.00
25512;DHT22;13414;44.534;18.700;2024-03-29T05:38:54;12.90;1.00
25512;DHT22;13414;44.534;18.700;2024-03-29T05:41:21;13.00;99.90
25512;DHT22;13414;44.534;18.700;2024-03-29T05:43:49;12.90;99.90
25512;DHT22;13414;44.534;18.700;2024-03-29T05:46:17;12.90;99.90
25512;DHT22;13414;44.534;18.700;2024-03-29T05:48:45;13.00;99.90
25512;DHT22;13414;44.534;18.700;2024-03-29T05:51:13;13.00;99.90
25512;DHT22;13414;44.534;18.700;2024-03-29T05:53:41;13.30;99.90
25512;DHT22;13414;44.534;18.700;2024-03-29T05:56:08;13.40;99.90
25512;DHT22;13414;44.534;18.700;2024-03-29T05:58:36;13.50;99.90
25512;DHT22;13414;44.534;18.700;2024-03-29T06:01:05;13.60;99.90
25512;DHT22;13414;44.534;18.700;2024-03-29T06:03:32;13.70;99.90
25512;DHT22;13414;44.534;18.700;2024-03-29T06:06:00;14.00;1.00
25512;DHT22;13414;44.534;18.700;2024-03-29T06:08:28;14.20;1.00
25512;DHT22;13414;44.534;18.700;2024-03-29T06:10:57;14.30;1.00
25512;DHT22;13414;44.534;18.700;2024-03-29T06:13:25;14.80;1.00
25512;DHT22;13414;44.534;18.700;2024-03-29T06:16:16;15.10;1.00
25512;DHT22;13414;44.534;18.700;2024-03-29T06:19:01;15.20;1.00
25512;DHT22;13414;44.534;18.700;2024-03-29T06:21:29;15.70;1.00
25512;DHT22;13414;44.534;18.700;2024-03-29T06:23:59;15.90;1.00
25512;DHT22;13414;44.534;18.700;2024-03-29T06:26:27;16.10;1.00
25512;DHT22;13414;44.534;18.700;2024-03-29T06:28:55;16.30;1.00
25512;DHT22;13414;44.534;18.700;2024-03-29T06:31:22;16.20;1.00
25512;DHT22;13414;44.534;18.700;2024-03-29T06:33:50;16.40;1.00
25512;DHT22;13414;44.534;18.700;2024-03-29T06:36:17;16.50;1.00
25512;DHT22;13414;44.534;18.700;2024-03-29T06:38:44;16.60;1.00
25512;DHT22;13414;44.534;18.700;2024-03-29T06:41:14;16.80;1.00
25512;DHT22;13414;44.534;18.700;2024-03-29T06:43:42;17.20;1.00
25512;DHT22;13414;44.534;18.700;2024-03-29T06:46:11;17.30;1.00
25512;DHT22;13414;44.534;18.700;2024-03-29T06:48:38;17.50;1.00
25512;DHT22;13414;44.534;18.700;2024-03-29T06:51:06;17.30;1.00
25512;DHT22;13414;44.534;18.700;2024-03-29T06:53:34;17.50;1.00
25512;DHT22;13414;44.534;18.700;2024-03-29T06:56:02;17.70;1.00
25512;DHT22;13414;44.534;18.700;2024-03-29T06:58:31;18.00;1.00
25512;DHT22;13414;44.534;18.700;2024-03-29T07:00:58;18.20;1.00
25512;DHT22;13414;44.534;18.700;2024-03-29T07:03:26;18.40;1.00
25512;DHT22;13414;44.534;18.700;2024-03-29T07:05:53;18.70;1.00
25512;DHT22;13414;44.534;18.700;2024-03-29T07:08:20;18.90;1.00
25512;DHT22;13414;44.534;18.700;2024-03-29T07:10:48;19.20;1.00
25512;DHT22;13414;44.534;18.700;2024-03-29T07:13:24;19.30;1.00
25512;DHT22;13414;44.534;18.700;2024-03-29T07:15:53;19.70;1.00
25512;DHT22;13414;44.534;18.700;2024-03-29T07:18:20;19.70;1.00
25512;DHT22;13414;44.534;18.700;2024-03-29T07:20:49;19.90;1.00
25512;DHT22;13414;44.534;18.700;2024-03-29T07:23:17;20.30;1.00
25512;DHT22;13414;44.534;18.700;2024-03-29T07:25:45;20.60;1.00
25512;DHT22;13414;44.534;18.700;2024-03-29T07:28:12;20.70;1.00
25512;DHT22;13414;44.534;18.700;2024-03-29T07:30:40;20.60;1.00
25512;DHT22;13414;44.534;18.700;2024-03-29T07:33:10;20.50;1.00
25512;DHT22;13414;44.534;18.700;2024-03-29T07:35:41;20.30;1.00
25512;DHT22;13414;44.534;18.700;2024-03-29T07:38:08;20.40;1.00
25512;DHT22;13414;44.534;18.700;2024-03-29T07:40:36;20.50;1.00
25512;DHT22;13414;44.534;18.700;2024-03-29T07:43:03;20.70;1.00
25512;DHT22;13414;44.534;18.700;2024-03-29T07:45:31;20.90;1.00
25512;DHT22;13414;44.534;18.700;2024-03-29T07:47:58;21.10;1.00
25512;DHT22;13414;44.534;18.700;2024-03-29T07:50:27;21.30;1.00
25512;DHT22;13414;44.534;18.700;2024-03-29T07:52:54;21.10;1.00
25512;DHT22;13414;44.534;18.700;2024-03-29T07:55:22;21.40;1.00
25512;DHT22;13414;44.534;18.700;2024-03-29T07:57:49;21.50;1.00
25512;DHT22;13414;44.534;18.700;2024-03-29T08:00:17;21.70;1.00
25512;DHT22;13414;44.534;18.700;2024-03-29T08:02:45;21.70;1.00
25512;DHT22;13414;44.534;18.700;2024-03-29T08:05:12;21.60;1.00
25512;DHT22;13414;44.534;18.700;2024-03-29T08:07:41;21.60;1.00
25512;DHT22;13414;44.534;18.700;2024-03-29T08:10:09;21.70;1.00
25512;DHT22;13414;44.534;18.700;2024-03-29T08:12:37;21.70;1.00
25512;DHT22;13414;44.534;18.700;2024-03-29T08:15:05;21.80;1.00
25512;DHT22;13414;44.534;18.700;2024-03-29T08:17:34;21.80;1.00
25512;DHT22;13414;44.534;18.700;2024-03-29T08:20:02;21.90;1.00
25512;DHT22;13414;44.534;18.700;2024-03-29T08:22:29;22.10;1.00
25512;DHT22;13414;44.534;18.700;2024-03-29T08:25:00;22.10;1.00
25512;DHT22;13414;44.534;18.700;2024-03-29T08:27:28;22.10;1.00
25512;DHT22;13414;44.534;18.700;2024-03-29T08:29:55;21.90;1.00
25512;DHT22;13414;44.534;18.700;2024-03-29T08:32:23;21.90;1.00
25512;DHT22;13414;44.534;18.700;2024-03-29T08:34:50;21.90;99.90
25512;DHT22;13414;44.534;18.700;2024-03-29T08:37:18;22.10;99.90
25512;DHT22;13414;44.534;18.700;2024-03-29T08:39:46;22.20;99.90
25512;DHT22;13414;44.534;18.700;2024-03-29T08:42:15;22.30;99.90
25512;DHT22;13414;44.534;18.700;2024-03-29T08:44:43;22.50;99.90
25512;DHT22;13414;44.534;18.700;2024-03-29T08:47:10;22.60;99.90
25512;DHT22;13414;44.534;18.700;2024-03-29T08:49:38;22.40;99.90
25512;DHT22;13414;44.534;18.700;2024-03-29T08:52:05;22.50;99.90
25512;DHT22;13414;44.534;18.700;2024-03-29T08:54:33;22.60;99.90
25512;DHT22;13414;44.534;18.700;2024-03-29T08:57:00;22.70;99.90
25512;DHT22;13414;44.534;18.700;2024-03-29T08:59:31;22.70;99.90
25512;DHT22;13414;44.534;18.700;2024-03-29T09:02:04;22.70;99.90
25512;DHT22;13414;44.534;18.700;2024-03-29T09:04:33;22.50;99.90
25512;DHT22;13414;44.534;18.700;2024-03-29T09:07:01;22.30;99.90
25512;DHT22;13414;44.534;18.700;2024-03-29T09:09:29;22.10;99.90
25512;DHT22;13414;44.534;18.700;2024-03-29T09:11:57;21.80;99.90
25512;DHT22;13414;44.534;18.700;2024-03-29T09:14:24;22.10;99.90
25512;DHT22;13414;44.534;18.700;2024-03-29T09:16:53;22.50;99.90
25512;DHT22;13414;44.534;18.700;2024-03-29T09:19:21;22.80;99.90
25512;DHT22;13414;44.534;18.700;2024-03-29T09:21:49;23.20;99.90
25512;DHT22;13414;44.534;18.700;2024-03-29T09:24:17;23.70;99.90
25512;DHT22;13414;44.534;18.700;2024-03-29T09:26:45;23.90;99.90
25512;DHT22;13414;44.534;18.700;2024-03-29T09:29:13;23.70;99.90
25512;DHT22;13414;44.534;18.700;2024-03-29T09:31:41;23.70;99.90
25512;DHT22;13414;44.534;18.700;2024-03-29T09:34:10;23.80;99.90
25512;DHT22;13414;44.534;18.700;2024-03-29T09:36:38;24.00;99.90
25512;DHT22;13414;44.534;18.700;2024-03-29T09:39:05;23.70;99.90
25512;DHT22;13414;44.534;18.700;2024-03-29T09:41:35;23.60;99.90
25512;DHT22;13414;44.534;18.700;2024-03-29T09:44:05;23.60;99.90
25512;DHT22;13414;44.534;18.700;2024-03-29T09:46:33;23.50;99.90
25512;DHT22;13414;44.534;18.700;2024-03-29T09:49:03;23.50;99.90
25512;DHT22;13414;44.534;18.700;2024-03-29T09:51:34;23.60;99.90
25512;DHT22;13414;44.534;18.700;2024-03-29T09:54:02;23.90;99.90
25512;DHT22;13414;44.534;18.700;2024-03-29T09:56:30;24.00;99.90
25512;DHT22;13414;44.534;18.700;2024-03-29T09:58:58;24.20;99.90
25512;DHT22;13414;44.534;18.700;2024-03-29T10:01:27;24.30;99.90
25512;DHT22;13414;44.534;18.700;2024-03-29T10:03:56;24.60;99.90
25512;DHT22;13414;44.534;18.700;2024-03-29T10:06:24;24.80;99.90
25512;DHT22;13414;44.534;18.700;2024-03-29T10:08:53;24.90;99.90
25512;DHT22;13414;44.534;18.700;2024-03-29T10:11:24;24.90;99.90
25512;DHT22;13414;44.534;18.700;2024-03-29T10:13:51;24.70;99.90
25512;DHT22;13414;44.534;18.700;2024-03-29T10:16:20;24.70;99.90
25512;DHT22;13414;44.534;18.700;2024-03-29T10:18:50;24.40;99.90
25512;DHT22;13414;44.534;18.700;2024-03-29T10:21:17;24.30;99.90
25512;DHT22;13414;44.534;18.700;2024-03-29T10:23:46;24.10;99.90
25512;DHT22;13414;44.534;18.700;2024-03-29T10:26:15;23.90;99.90
25512;DHT22;13414;44.534;18.700;2024-03-29T10:28:43;24.10;99.90
25512;DHT22;13414;44.534;18.700;2024-03-29T10:31:11;24.10;99.90
25512;DHT22;13414;44.534;18.700;2024-03-29T10:33:42;24.30;99.90
25512;DHT22;13414;44.534;18.700;2024-03-29T10:36:10;24.30;99.90
25512;DHT22;13414;44.534;18.700;2024-03-29T10:38:40;24.50;99.90
25512;DHT22;13414;44.534;18.700;2024-03-29T10:41:08;24.80;99.90
25512;DHT22;13414;44.534;18.700;2024-03-29T10:43:37;25.10;99.90
25512;DHT22;13414;44.534;18.700;2024-03-29T10:46:06;25.30;99.90
25512;DHT22;13414;44.534;18.700;2024-03-29T10:48:34;25.00;99.90
25512;DHT22;13414;44.534;18.700;2024-03-29T10:51:03;24.90;99.90
25512;DHT22;13414;44.534;18.700;2024-03-29T10:53:31;25.20;99.90
25512;DHT22;13414;44.534;18.700;2024-03-29T10:56:00;25.20;99.90
25512;DHT22;13414;44.534;18.700;2024-03-29T10:58:30;25.10;99.90
25512;DHT22;13414;44.534;18.700;2024-03-29T11:00:59;25.20;99.90
25512;DHT22;13414;44.534;18.700;2024-03-29T11:03:35;25.30;99.90
25512;DHT22;13414;44.534;18.700;2024-03-29T11:06:06;25.40;99.90
25512;DHT22;13414;44.534;18.700;2024-03-29T11:08:36;25.10;99.90
25512;DHT22;13414;44.534;18.700;2024-03-29T11:11:06;24.80;99.90
25512;DHT22;13414;44.534;18.700;2024-03-29T11:13:40;24.60;99.90
25512;DHT22;13414;44.534;18.700;2024-03-29T11:16:12;24.70;99.90
25512;DHT22;13414;44.534;18.700;2024-03-29T11:18:43;24.70;99.90
25512;DHT22;13414;44.534;18.700;2024-03-29T11:21:13;24.90;99.90
25512;DHT22;13414;44.534;18.700;2024-03-29T11:23:48;24.90;99.90
25512;DHT22;13414;44.534;18.700;2024-03-29T11:26:16;24.80;99.90
25512;DHT22;13414;44.534;18.700;2024-03-29T11:28:48;24.90;99.90
25512;DHT22;13414;44.534;18.700;2024-03-29T11:31:17;24.70;99.90
25512;DHT22;13414;44.534;18.700;2024-03-29T11:33:45;24.90;99.90
25512;DHT22;13414;44.534;18.700;2024-03-29T11:36:16;25.30;99.90
25512;DHT22;13414;44.534;18.700;2024-03-29T11:38:45;25.20;99.90
25512;DHT22;13414;44.534;18.700;2024-03-29T11:41:14;25.30;99.90
25512;DHT22;13414;44.534;18.700;2024-03-29T11:43:42;25.50;99.90
25512;DHT22;13414;44.534;18.700;2024-03-29T11:46:11;25.30;99.90
25512;DHT22;13414;44.534;18.700;2024-03-29T11:48:40;25.20;99.90
25512;DHT22;13414;44.534;18.700;2024-03-29T11:51:08;25.40;99.90
25512;DHT22;13414;44.534;18.700;2024-03-29T11:53:37;25.50;99.90
25512;DHT22;13414;44.534;18.700;2024-03-29T11:56:05;25.50;99.90
25512;DHT22;13414;44.534;18.700;2024-03-29T11:58:33;25.60;99.90
25512;DHT22;13414;44.534;18.700;2024-03-29T12:01:02;25.40;99.90
25512;DHT22;13414;44.534;18.700;2024-03-29T12:03:31;25.40;99.90
25512;DHT22;13414;44.534;18.700;2024-03-29T12:06:00;25.20;99.90
25512;DHT22;13414;44.534;18.700;2024-03-29T12:08:29;24.90;99.90
25512;DHT22;13414;44.534;18.700;2024-03-29T12:10:58;24.60;99.90
25512;DHT22;13414;44.534;18.700;2024-03-29T12:13:25;24.60;99.90
25512;DHT22;13414;44.534;18.700;2024-03-29T12:15:53;24.80;99.90
25512;DHT22;13414;44.534;18.700;2024-03-29T12:18:21;24.90;99.90
25512;DHT22;13414;44.534;18.700;2024-03-29T12:20:49;24.80;99.90
25512;DHT22;13414;44.534;18.700;2024-03-29T12:23:19;24.60;99.90
25512;DHT22;13414;44.534;18.700;2024-03-29T12:25:48;24.60;99.90
25512;DHT22;13414;44.534;18.700;2024-03-29T12:28:16;24.80;99.90
25512;DHT22;13414;44.534;18.700;2024-03-29T12:30:45;24.70;99.90
25512;DHT22;13414;44.534;18.700;2024-03-29T12:33:13;24.80;99.90
25512;DHT22;13414;44.534;18.700;2024-03-29T12:35:42;24.80;99.90
25512;DHT22;13414;44.534;18.700;2024-03-29T12:38:11;24.60;99.90
25512;DHT22;13414;44.534;18.700;2024-03-29T12:40:41;24.50;99.90
25512;DHT22;13414;44.534;18.700;2024-03-29T12:43:10;24.60;99.90
25512;DHT22;13414;44.534;18.700;2024-03-29T12:45:39;24.90;99.90
25512;DHT22;13414;44.534;18.700;2024-03-29T12:48:10;25.10;99.90
25512;DHT22;13414;44.534;18.700;2024-03-29T12:50:40;25.40;99.90
25512;DHT22;13414;44.534;18.700;2024-03-29T12:53:09;25.50;99.90
25512;DHT22;13414;44.534;18.700;2024-03-29T12:55:39;25.70;99.90
25512;DHT22;13414;44.534;18.700;2024-03-29T12:58:10;25.50;99.90
25512;DHT22;13414;44.534;18.700;2024-03-29T13:00:38;25.50;99.90
25512;DHT22;13414;44.534;18.700;2024-03-29T13:03:06;25.70;99.90
25512;DHT22;13414;44.534;18.700;2024-03-29T13:05:35;25.80;99.90
25512;DHT22;13414;44.534;18.700;2024-03-29T13:08:07;26.00;99.90
25512;DHT22;13414;44.534;18.700;2024-03-29T13:10:36;26.10;99.90
25512;DHT22;13414;44.534;18.700;2024-03-29T13:13:06;26.00;99.90
25512;DHT22;13414;44.534;18.700;2024-03-29T13:15:34;26.10;99.90
25512;DHT22;13414;44.534;18.700;2024-03-29T13:18:02;26.20;99.90
25512;DHT22;13414;44.534;18.700;2024-03-29T13:20:30;26.10;99.90
25512;DHT22;13414;44.534;18.700;2024-03-29T13:22:58;26.00;99.90
25512;DHT22;13414;44.534;18.700;2024-03-29T13:25:26;25.90;99.90
25512;DHT22;13414;44.534;18.700;2024-03-29T13:27:54;26.00;99.90
25512;DHT22;13414;44.534;18.700;2024-03-29T13:30:25;26.00;99.90
25512;DHT22;13414;44.534;18.700;2024-03-29T13:32:53;26.00;99.90
25512;DHT22;13414;44.534;18.700;2024-03-29T13:35:21;26.20;99.90
25512;DHT22;13414;44.534;18.700;2024-03-29T13:37:49;26.20;99.90
25512;DHT22;13414;44.534;18.700;2024-03-29T13:40:18;26.30;99.90
25512;DHT22;13414;44.534;18.700;2024-03-29T13:42:46;26.30;99.90
25512;DHT22;13414;44.534;18.700;2024-03-29T13:45:14;26.30;99.90
25512;DHT22;13414;44.534;18.700;2024-03-29T13:47:44;26.30;99.90
25512;DHT22;13414;44.534;18.700;2024-03-29T13:50:13;26.20;99.90
25512;DHT22;13414;44.534;18.700;2024-03-29T13:52:42;25.80;99.90
25512;DHT22;13414;44.534;18.700;2024-03-29T13:55:10;25.70;99.90
25512;DHT22;13414;44.534;18.700;2024-03-29T13:57:38;25.80;99.90
25512;DHT22;13414;44.534;18.700;2024-03-29T14:00:07;25.80;99.90
25512;DHT22;13414;44.534;18.700;2024-03-29T14:02:39;26.00;99.90
25512;DHT22;13414;44.534;18.700;2024-03-29T14:05:08;26.00;99.90
25512;DHT22;13414;44.534;18.700;2024-03-29T14:07:36;26.00;99.90
25512;DHT22;13414;44.534;18.700;2024-03-29T14:10:05;25.90;99.90
25512;DHT22;13414;44.534;18.700;2024-03-29T14:12:33;25.90;99.90
25512;DHT22;13414;44.534;18.700;2024-03-29T14:15:00;25.90;99.90
25512;DHT22;13414;44.534;18.700;2024-03-29T14:17:29;25.80;99.90
25512;DHT22;13414;44.534;18.700;2024-03-29T14:19:57;25.40;99.90
25512;DHT22;13414;44.534;18.700;2024-03-29T14:22:26;25.20;99.90
25512;DHT22;13414;44.534;18.700;2024-03-29T14:24:59;25.20;99.90
25512;DHT22;13414;44.534;18.700;2024-03-29T14:27:28;25.10;99.90
25512;DHT22;13414;44.534;18.700;2024-03-29T14:29:57;25.10;99.90
25512;DHT22;13414;44.534;18.700;2024-03-29T14:32:25;25.10;99.90
25512;DHT22;13414;44.534;18.700;2024-03-29T14:34:52;25.00;99.90
25512;DHT22;13414;44.534;18.700;2024-03-29T14:37:20;24.90;99.90
25512;DHT22;13414;44.534;18.700;2024-03-29T14:39:48;24.90;99.90
25512;DHT22;13414;44.534;18.700;2024-03-29T14:42:16;25.00;99.90
25512;DHT22;13414;44.534;18.700;2024-03-29T14:44:48;25.10;99.90
25512;DHT22;13414;44.534;18.700;2024-03-29T14:47:16;25.20;99.90
25512;DHT22;13414;44.534;18.700;2024-03-29T14:49:43;25.20;99.90
25512;DHT22;13414;44.534;18.700;2024-03-29T14:52:10;25.00;99.90
25512;DHT22;13414;44.534;18.700;2024-03-29T14:54:38;25.00;99.90
25512;DHT22;13414;44.534;18.700;2024-03-29T14:57:07;25.10;99.90
25512;DHT22;13414;44.534;18.700;2024-03-29T14:59:35;25.00;99.90
25512;DHT22;13414;44.534;18.700;2024-03-29T15:02:03;25.00;99.90
25512;DHT22;13414;44.534;18.700;2024-03-29T15:04:30;25.00;99.90
25512;DHT22;13414;44.534;18.700;2024-03-29T15:06:58;24.90;99.90
25512;DHT22;13414;44.534;18.700;2024-03-29T15:09:26;24.90;99.90
25512;DHT22;13414;44.534;18.700;2024-03-29T15:11:53;24.80;99.90
25512;DHT22;13414;44.534;18.700;2024-03-29T15:14:22;24.70;99.90
25512;DHT22;13414;44.534;18.700;2024-03-29T15:16:49;24.50;99.90
25512;DHT22;13414;44.534;18.700;2024-03-29T15:19:17;24.40;99.90
25512;DHT22;13414;44.534;18.700;2024-03-29T15:21:44;24.30;99.90
25512;DHT22;13414;44.534;18.700;2024-03-29T15:24:13;24.20;99.90
25512;DHT22;13414;44.534;18.700;2024-03-29T15:26:41;24.10;99.90
25512;DHT22;13414;44.534;18.700;2024-03-29T15:29:08;24.10;99.90